Time;durP1;ratioP1;P1;durP2;ratioP2;P2;SDS_P1;SDS_P2;PMS_P1;PMS_P2;Temp;Humidity;BMP_temperature;BMP_pressure;BME280_temperature;BME280_humidity;BME280_pressure;Samples;Min_cycle;Max_cycle;Signal;HPM_P1;HPM_P2
2024/01/15 00:00:50;;;;;;;8.57;8.18;;;;;;;-145.48;100.00;64539.38;6278517;28;20174;-89
2024/01/15 00:03:53;;;;;;;8.25;7.68;;;;;;;-145.48;100.00;64539.38;6279543;28;20269;-92
2024/01/15 00:06:55;;;;;;;7.72;7.32;;;;;;;-145.48;100.00;64539.38;6289209;28;20087;-88
2024/01/15 00:09:57;;;;;;;7.13;6.82;;;;;;;-145.48;100.00;64539.38;6281729;28;20069;-91
2024/01/15 00:12:59;;;;;;;7.22;6.93;;;;;;;-145.48;100.00;64539.38;6288849;28;20124;-89
2024/01/15 00:16:01;;;;;;;7.05;6.78;;;;;;;-145.48;100.00;64539.38;6285103;28;20043;-89
2024/01/15 00:19:03;;;;;;;9.27;6.97;;;;;;;-145.48;100.00;64539.38;6281036;28;20040;-89
2024/01/15 00:22:05;;;;;;;7.25;6.72;;;;;;;-145.48;100.00;64539.38;6289457;28;20056;-90
2024/01/15 00:25:08;;;;;;;6.68;6.43;;;;;;;-145.48;100.00;64539.38;6274948;28;20111;-91
2024/01/15 00:28:10;;;;;;;6.85;6.43;;;;;;;-145.48;100.00;64539.38;6296403;28;20963;-89
2024/01/15 00:31:11;;;;;;;8.13;7.57;;;;;;;-145.48;100.00;64539.38;6285243;28;20554;-87
2024/01/15 00:34:14;;;;;;;7.78;7.47;;;;;;;-145.48;100.00;64539.38;6288294;28;20352;-89
2024/01/15 00:37:15;;;;;;;6.05;5.85;;;;;;;-145.48;100.00;64539.38;6279641;28;20120;-88
2024/01/15 00:40:18;;;;;;;6.50;6.13;;;;;;;-145.48;100.00;64539.38;6297124;28;20171;-89
2024/01/15 00:43:20;;;;;;;6.60;6.30;;;;;;;-145.48;100.00;64539.38;6271842;28;20063;-89
2024/01/15 00:46:22;;;;;;;7.32;7.03;;;;;;;-145.48;100.00;64539.38;6274845;28;20292;-88
2024/01/15 00:49:24;;;;;;;7.20;6.90;;;;;;;-145.48;100.00;64539.38;6281946;28;20507;-89
2024/01/15 00:52:26;;;;;;;6.45;6.25;;;;;;;-145.48;100.00;64539.38;6285171;28;20191;-89
2024/01/15 00:55:29;;;;;;;7.75;7.03;;;;;;;-145.48;100.00;64539.38;6287358;28;20036;-87
2024/01/15 00:58:31;;;;;;;7.40;7.07;;;;;;;-145.48;100.00;64539.38;6288479;28;20044;-88
2024/01/15 01:01:33;;;;;;;7.28;6.85;;;;;;;-145.48;100.00;64539.38;6266447;28;20053;-89
2024/01/15 01:04:35;;;;;;;7.10;6.80;;;;;;;-145.48;100.00;64539.38;6274423;28;20049;-88
2024/01/15 01:07:38;;;;;;;7.30;6.95;;;;;;;-145.48;100.00;64539.38;6274587;28;20467;-90
2024/01/15 01:10:42;;;;;;;6.80;6.50;;;;;;;-145.48;100.00;64539.38;6288163;28;20148;-91
2024/01/15 01:13:45;;;;;;;7.15;6.80;;;;;;;-145.48;100.00;64539.38;6288291;28;20056;-90
2024/01/15 01:16:46;;;;;;;6.47;6.28;;;;;;;-145.48;100.00;64539.38;6282044;28;20032;-92
2024/01/15 01:19:49;;;;;;;10.52;6.07;;;;;;;-145.48;100.00;64539.38;6285204;28;20522;-90
2024/01/15 01:22:55;;;;;;;16.52;7.18;;;;;;;-145.48;100.00;64539.38;6285662;28;20412;-92
2024/01/15 01:25:58;;;;;;;5.97;5.78;;;;;;;-145.48;100.00;64539.38;6286612;28;20037;-93
2024/01/15 01:29:01;;;;;;;7.00;6.50;;;;;;;-145.48;100.00;64539.38;6284424;28;20078;-93
2024/01/15 01:32:04;;;;;;;6.25;5.90;;;;;;;-145.48;100.00;64539.38;6279207;28;20037;-93
2024/01/15 01:35:07;;;;;;;6.20;6.00;;;;;;;-145.48;100.00;64539.38;6285653;28;20097;-92
2024/01/15 01:38:09;;;;;;;6.63;6.32;;;;;;;-145.48;100.00;64539.38;6284185;28;20049;-91
2024/01/15 01:41:11;;;;;;;7.30;6.90;;;;;;;-145.48;100.00;64539.38;6294498;28;20043;-92
2024/01/15 01:44:13;;;;;;;6.63;6.30;;;;;;;-145.48;100.00;64539.38;6279210;28;20075;-91
2024/01/15 01:47:16;;;;;;;5.82;5.63;;;;;;;-145.48;100.00;64539.38;6284223;28;20035;-91
2024/01/15 01:50:18;;;;;;;6.32;6.13;;;;;;;-145.48;100.00;64539.38;6285687;28;20124;-90
2024/01/15 01:53:23;;;;;;;6.32;6.13;;;;;;;-145.48;100.00;64539.38;6283994;28;20055;-89
2024/01/15 01:56:25;;;;;;;7.10;6.60;;;;;;;-145.48;100.00;64539.38;6272318;28;20037;-90
2024/01/15 01:59:27;;;;;;;7.07;6.78;;;;;;;-145.48;100.00;64539.38;6285507;28;20048;-91
2024/01/15 02:02:31;;;;;;;6.70;6.50;;;;;;;-145.48;100.00;64539.38;6284340;28;20040;-90
2024/01/15 02:05:36;;;;;;;6.38;6.07;;;;;;;-145.48;100.00;64539.38;6277097;28;20041;-90
2024/01/15 02:08:38;;;;;;;7.65;7.10;;;;;;;-145.48;100.00;64539.38;6267747;28;20071;-89
2024/01/15 02:11:40;;;;;;;6.25;6.05;;;;;;;-145.48;100.00;64539.38;6276263;28;20029;-89
2024/01/15 02:14:43;;;;;;;7.55;7.15;;;;;;;-145.48;100.00;64539.38;6277974;28;20052;-88
2024/01/15 02:18:10;;;;;;;6.70;6.45;;;;;;;-145.48;100.00;64539.38;6273398;28;20515;-87
2024/01/15 02:21:12;;;;;;;6.07;5.88;;;;;;;-145.48;100.00;64539.38;6275994;28;20086;-88
2024/01/15 02:24:14;;;;;;;6.60;6.22;;;;;;;-145.48;100.00;64539.38;6281082;28;20033;-88
2024/01/15 02:27:17;;;;;;;6.57;6.28;;;;;;;-145.48;100.00;64539.38;6281746;28;20041;-87
2024/01/15 02:30:18;;;;;;;6.43;6.15;;;;;;;-145.48;100.00;64539.38;6276868;28;20076;-87
2024/01/15 02:33:21;;;;;;;5.88;5.68;;;;;;;-145.48;100.00;64539.38;6276116;28;20044;-88
2024/01/15 02:36:23;;;;;;;5.68;5.47;;;;;;;-145.48;100.00;64539.38;6273233;28;20675;-90
2024/01/15 02:39:26;;;;;;;7.15;6.47;;;;;;;-145.48;100.00;64539.38;6277151;28;20534;-87
2024/01/15 02:42:28;;;;;;;5.70;5.50;;;;;;;-145.48;100.00;64539.38;6281324;28;20126;-87
2024/01/15 02:45:30;;;;;;;5.80;5.60;;;;;;;-145.48;100.00;64539.38;6281969;28;20387;-88
2024/01/15 02:48:34;;;;;;;6.15;5.85;;;;;;;-145.48;100.00;64539.38;6268150;28;20037;-87
2024/01/15 02:51:37;;;;;;;6.65;6.45;;;;;;;-145.48;100.00;64539.38;6284001;28;20058;-90
2024/01/15 02:54:39;;;;;;;7.68;6.95;;;;;;;-145.48;100.00;64539.38;6280251;28;20538;-87
2024/01/15 02:57:41;;;;;;;6.28;6.03;;;;;;;-145.48;100.00;64539.38;6282091;28;20039;-87
2024/01/15 03:00:43;;;;;;;6.35;5.95;;;;;;;-145.48;100.00;64539.38;6267750;28;20048;-89
2024/01/15 03:03:45;;;;;;;5.63;5.43;;;;;;;-145.48;100.00;64539.38;6276980;28;20525;-87
2024/01/15 03:06:47;;;;;;;6.15;5.93;;;;;;;-145.48;100.00;64539.38;6275974;28;20036;-87
2024/01/15 03:09:49;;;;;;;6.78;6.43;;;;;;;-145.48;100.00;64539.38;6284967;28;20502;-87
2024/01/15 03:12:51;;;;;;;7.00;6.60;;;;;;;-145.48;100.00;64539.38;6285080;28;20044;-88
2024/01/15 03:15:56;;;;;;;7.15;6.45;;;;;;;-145.48;100.00;64539.38;6281247;28;20029;-89
2024/01/15 03:18:58;;;;;;;5.47;5.28;;;;;;;-145.48;100.00;64539.38;6276452;28;20408;-88
2024/01/15 03:22:02;;;;;;;5.90;5.68;;;;;;;-145.48;100.00;64539.38;6281419;28;20048;-88
2024/01/15 03:25:05;;;;;;;6.32;6.13;;;;;;;-145.48;100.00;64539.38;6255954;28;20048;-88
2024/01/15 03:28:10;;;;;;;6.00;5.75;;;;;;;-145.48;100.00;64539.38;6276559;28;20051;-88
2024/01/15 03:31:12;;;;;;;6.50;6.25;;;;;;;-145.48;100.00;64539.38;6277174;28;20518;-88
2024/01/15 03:34:17;;;;;;;5.95;5.75;;;;;;;-145.48;100.00;64539.38;6285908;28;20453;-88
2024/01/15 03:37:19;;;;;;;6.00;5.72;;;;;;;-145.48;100.00;64539.38;6281831;28;20033;-90
2024/01/15 03:40:22;;;;;;;6.40;6.10;;;;;;;-145.48;100.00;64539.38;6280615;28;20458;-88
2024/01/15 03:43:25;;;;;;;6.13;5.82;;;;;;;-145.48;100.00;64539.38;6262451;28;20052;-89
2024/01/15 03:46:28;;;;;;;5.72;5.53;;;;;;;-145.48;100.00;64539.38;6272050;28;20041;-90
2024/01/15 03:49:30;;;;;;;5.63;5.43;;;;;;;-145.48;100.00;64539.38;6282255;28;20040;-89
2024/01/15 03:52:33;;;;;;;5.75;5.55;;;;;;;-145.48;100.00;64539.38;6278354;28;20033;-90
2024/01/15 03:55:35;;;;;;;6.43;6.22;;;;;;;-145.48;100.00;64539.38;6281647;28;20044;-88
2024/01/15 03:58:37;;;;;;;6.18;5.88;;;;;;;-145.48;100.00;64539.38;6270368;28;20141;-89
2024/01/15 04:01:39;;;;;;;7.32;6.93;;;;;;;-145.48;100.00;64539.38;6269252;28;20063;-90
2024/01/15 04:04:42;;;;;;;8.25;7.95;;;;;;;-145.48;100.00;64539.38;6276935;28;20091;-89
2024/01/15 04:07:44;;;;;;;8.43;6.32;;;;;;;-145.48;100.00;64539.38;6287648;28;20072;-90
2024/01/15 04:10:46;;;;;;;6.38;6.18;;;;;;;-145.48;100.00;64539.38;6283234;28;20041;-89
2024/01/15 04:13:48;;;;;;;5.05;4.90;;;;;;;-145.48;100.00;64539.38;6292841;28;20033;-91
2024/01/15 04:16:50;;;;;;;5.80;5.60;;;;;;;-145.48;100.00;64539.38;6277579;28;20045;-91
2024/01/15 04:19:52;;;;;;;5.53;5.32;;;;;;;-145.48;100.00;64539.38;6280281;28;20036;-90
2024/01/15 04:22:54;;;;;;;6.68;6.25;;;;;;;-145.48;100.00;64539.38;6283167;28;20551;-91
2024/01/15 04:25:57;;;;;;;5.38;5.18;;;;;;;-145.48;100.00;64539.38;6297895;28;20044;-90
2024/01/15 04:28:59;;;;;;;7.22;6.60;;;;;;;-145.48;100.00;64539.38;6282469;28;20444;-89
2024/01/15 04:32:01;;;;;;;5.40;5.20;;;;;;;-145.48;100.00;64539.38;6284121;28;20040;-90
2024/01/15 04:35:03;;;;;;;6.03;5.82;;;;;;;-145.48;100.00;64539.38;6282010;28;20490;-90
2024/01/15 04:38:06;;;;;;;5.32;5.13;;;;;;;-145.48;100.00;64539.38;6283770;28;20036;-90
2024/01/15 04:41:15;;;;;;;5.65;5.45;;;;;;;-145.48;100.00;64539.38;6287267;28;20036;-90
2024/01/15 04:44:18;;;;;;;5.20;5.00;;;;;;;-145.48;100.00;64539.38;6285637;28;20179;-92
2024/01/15 04:47:20;;;;;;;6.60;6.28;;;;;;;-145.48;100.00;64539.38;6283329;28;20049;-91
2024/01/15 04:50:23;;;;;;;6.07;5.78;;;;;;;-145.48;100.00;64539.38;6280753;28;20052;-92
2024/01/15 04:53:25;;;;;;;6.18;5.88;;;;;;;-145.48;100.00;64539.38;6285807;28;20194;-91
2024/01/15 04:56:27;;;;;;;5.25;5.05;;;;;;;-145.48;100.00;64539.38;6288021;28;20457;-91
2024/01/15 04:59:29;;;;;;;5.53;5.32;;;;;;;-145.48;100.00;64539.38;6272695;28;20402;-92
2024/01/15 05:02:31;;;;;;;6.70;6.07;;;;;;;-145.48;100.00;64539.38;6288066;28;20049;-89
2024/01/15 05:05:33;;;;;;;4.88;4.78;;;;;;;-145.48;100.00;64539.38;6280182;28;20055;-89
2024/01/15 05:08:35;;;;;;;6.13;5.85;;;;;;;-145.48;100.00;64539.38;6283904;28;20122;-91
2024/01/15 05:11:37;;;;;;;5.78;5.47;;;;;;;-145.48;100.00;64539.38;6274170;28;20063;-92
2024/01/15 05:14:39;;;;;;;5.70;5.50;;;;;;;-145.48;100.00;64539.38;6284838;28;20036;-91
2024/01/15 05:17:41;;;;;;;7.63;7.13;;;;;;;-145.48;100.00;64539.38;6286391;28;20041;-90
2024/01/15 05:20:43;;;;;;;5.72;5.53;;;;;;;-145.48;100.00;64539.38;6288245;28;20386;-90
2024/01/15 05:23:45;;;;;;;5.50;5.30;;;;;;;-145.48;100.00;64539.38;6277097;28;20060;-91
2024/01/15 05:26:47;;;;;;;5.30;5.10;;;;;;;-145.48;100.00;64539.38;6283377;28;20068;-90
2024/01/15 05:29:49;;;;;;;5.72;5.53;;;;;;;-145.48;100.00;64539.38;6283674;28;20033;-89
2024/01/15 05:32:51;;;;;;;7.15;6.85;;;;;;;-145.48;100.00;64539.38;6285107;28;20052;-88
2024/01/15 05:35:53;;;;;;;5.30;5.10;;;;;;;-145.48;100.00;64539.38;6289069;28;20036;-89
2024/01/15 05:38:56;;;;;;;5.45;5.25;;;;;;;-145.48;100.00;64539.38;6289994;28;20037;-90
2024/01/15 05:41:58;;;;;;;8.20;7.80;;;;;;;-145.48;100.00;64539.38;6291013;28;20620;-90
2024/01/15 05:45:02;;;;;;;5.97;5.68;;;;;;;-145.48;100.00;64539.38;6295706;28;20143;-89
2024/01/15 05:48:04;;;;;;;5.68;5.47;;;;;;;-145.48;100.00;64539.38;6285142;28;20045;-89
2024/01/15 05:51:06;;;;;;;6.18;5.82;;;;;;;-145.48;100.00;64539.38;6277583;28;20043;-89
2024/01/15 05:54:08;;;;;;;5.80;5.60;;;;;;;-145.48;100.00;64539.38;6282773;28;20139;-89
2024/01/15 05:57:10;;;;;;;18.08;17.00;;;;;;;-145.48;100.00;64539.38;6266224;28;20052;-88
2024/01/15 06:00:13;;;;;;;5.50;5.30;;;;;;;-145.48;100.00;64539.38;6281161;28;20036;-89
2024/01/15 06:03:15;;;;;;;5.82;5.63;;;;;;;-145.48;100.00;64539.38;6287819;28;20088;-88
2024/01/15 06:06:18;;;;;;;5.68;5.47;;;;;;;-145.48;100.00;64539.38;6280292;28;20047;-89
2024/01/15 06:09:20;;;;;;;5.10;5.00;;;;;;;-145.48;100.00;64539.38;6279639;28;20127;-91
2024/01/15 06:12:22;;;;;;;5.40;5.20;;;;;;;-145.48;100.00;64539.38;6280381;28;20044;-89
2024/01/15 06:15:24;;;;;;;5.85;5.65;;;;;;;-145.48;100.00;64539.38;6283058;28;20033;-90
2024/01/15 06:18:26;;;;;;;5.45;5.25;;;;;;;-145.48;100.00;64539.38;6272030;28;20040;-89
2024/01/15 06:21:29;;;;;;;5.80;5.60;;;;;;;-145.48;100.00;64539.38;6275811;28;20040;-92
2024/01/15 06:24:32;;;;;;;7.88;7.20;;;;;;;-145.48;100.00;64539.38;6278747;28;20052;-91
2024/01/15 06:27:34;;;;;;;5.97;5.78;;;;;;;-145.48;100.00;64539.38;6271137;28;20041;-91
2024/01/15 06:30:36;;;;;;;5.75;5.55;;;;;;;-145.48;100.00;64539.38;6263169;28;20511;-90
2024/01/15 06:33:38;;;;;;;5.95;5.75;;;;;;;-145.48;100.00;64539.38;6284706;28;20070;-89
2024/01/15 06:36:41;;;;;;;6.03;5.75;;;;;;;-145.48;100.00;64539.38;6274725;28;20047;-89
2024/01/15 06:39:43;;;;;;;5.82;5.63;;;;;;;-145.48;100.00;64539.38;6274157;28;20069;-88
2024/01/15 06:42:45;;;;;;;5.47;5.28;;;;;;;-145.48;100.00;64539.38;6288643;28;20044;-90
2024/01/15 06:45:47;;;;;;;5.47;5.28;;;;;;;-145.48;100.00;64539.38;6287584;28;20044;-89
2024/01/15 06:48:49;;;;;;;5.85;5.30;;;;;;;-145.48;100.00;64539.38;6280747;28;20051;-89
2024/01/15 06:51:52;;;;;;;6.05;5.68;;;;;;;-145.48;100.00;64539.38;6288703;28;20044;-92
2024/01/15 06:54:58;;;;;;;5.85;5.65;;;;;;;-145.48;100.00;64539.38;6281530;28;20041;-90
2024/01/15 06:58:00;;;;;;;5.88;5.68;;;;;;;-145.48;100.00;64539.38;6285340;28;20045;-90
2024/01/15 07:01:03;;;;;;;5.72;5.53;;;;;;;-145.48;100.00;64539.38;6275316;28;20040;-91
2024/01/15 07:04:05;;;;;;;5.80;5.60;;;;;;;-145.48;100.00;64539.38;6276452;28;20043;-90
2024/01/15 07:07:07;;;;;;;5.63;5.35;;;;;;;-145.48;100.00;64539.38;6287537;28;20504;-89
2024/01/15 07:10:10;;;;;;;5.80;5.40;;;;;;;-145.48;100.00;64539.38;6276348;28;20052;-91
2024/01/15 07:13:11;;;;;;;5.57;5.38;;;;;;;-145.48;100.00;64539.38;6282868;28;20047;-90
2024/01/15 07:16:13;;;;;;;6.00;5.80;;;;;;;-145.48;100.00;64539.38;6270604;28;20052;-91
2024/01/15 07:19:26;;;;;;;5.82;5.63;;;;;;;-145.48;100.00;64539.38;6280143;28;20041;-89
2024/01/15 07:22:28;;;;;;;5.57;5.38;;;;;;;-145.48;100.00;64539.38;6286848;28;20041;-90
2024/01/15 07:25:29;;;;;;;7.03;6.47;;;;;;;-145.48;100.00;64539.38;6286120;28;20178;-88
2024/01/15 07:28:31;;;;;;;5.65;5.45;;;;;;;-145.48;100.00;64539.38;6288316;28;20667;-90
2024/01/15 07:31:34;;;;;;;9.20;8.80;;;;;;;-145.48;100.00;64539.38;6289816;28;20041;-90
2024/01/15 07:34:36;;;;;;;5.88;5.68;;;;;;;-145.48;100.00;64539.38;6286779;28;20035;-89
2024/01/15 07:37:38;;;;;;;14.98;6.15;;;;;;;-145.48;100.00;64539.38;6291629;28;20037;-87
2024/01/15 07:40:40;;;;;;;5.78;5.57;;;;;;;-145.48;100.00;64539.38;6289789;28;20044;-87
2024/01/15 07:43:43;;;;;;;6.13;5.93;;;;;;;-145.48;100.00;64539.38;6284724;28;20052;-88
2024/01/15 07:46:46;;;;;;;5.40;5.20;;;;;;;-145.48;100.00;64539.38;6282940;28;20421;-86
2024/01/15 07:49:48;;;;;;;5.82;5.63;;;;;;;-145.48;100.00;64539.38;6293039;28;20037;-85
2024/01/15 07:52:50;;;;;;;6.00;5.80;;;;;;;-145.48;100.00;64539.38;6283380;28;20041;-85
2024/01/15 07:55:53;;;;;;;7.03;5.72;;;;;;;-145.48;100.00;64539.38;6291450;28;20044;-85
2024/01/15 07:58:56;;;;;;;5.57;5.38;;;;;;;-145.48;100.00;64539.38;6293312;28;20049;-85
2024/01/15 08:01:59;;;;;;;5.15;5.05;;;;;;;-145.48;100.00;64539.38;6281189;28;20450;-85
2024/01/15 08:05:01;;;;;;;6.75;6.35;;;;;;;-145.48;100.00;64539.38;6278170;28;20051;-86
2024/01/15 08:08:03;;;;;;;7.25;6.60;;;;;;;-145.48;100.00;64539.38;6286000;28;20045;-86
2024/01/15 08:11:05;;;;;;;6.10;5.75;;;;;;;-145.48;100.00;64539.38;6281431;28;20044;-87
2024/01/15 08:14:09;;;;;;;5.90;5.70;;;;;;;-145.48;100.00;64539.38;6283204;28;20041;-88
2024/01/15 08:17:11;;;;;;;5.63;5.43;;;;;;;-145.48;100.00;64539.38;6283832;28;20035;-88
2024/01/15 08:20:13;;;;;;;5.85;5.65;;;;;;;-145.48;100.00;64539.38;6282379;28;20044;-89
2024/01/15 08:23:15;;;;;;;5.65;5.45;;;;;;;-145.48;100.00;64539.38;6287307;28;20033;-89
2024/01/15 08:26:18;;;;;;;6.30;6.00;;;;;;;-145.48;100.00;64539.38;6285765;28;20040;-89
2024/01/15 08:29:21;;;;;;;6.05;5.78;;;;;;;-145.48;100.00;64539.38;6288671;28;20053;-88
2024/01/15 08:32:23;;;;;;;6.57;6.20;;;;;;;-145.48;100.00;64539.38;6286082;28;20218;-87
2024/01/15 08:35:26;;;;;;;6.13;5.72;;;;;;;-145.48;100.00;64539.38;6284080;28;20047;-88
2024/01/15 08:38:28;;;;;;;5.90;5.70;;;;;;;-145.48;100.00;64539.38;6281949;28;20059;-88
2024/01/15 08:41:32;;;;;;;6.95;6.65;;;;;;;-145.48;100.00;64539.38;6286943;28;20036;-85
2024/01/15 08:44:34;;;;;;;5.97;5.78;;;;;;;-145.48;100.00;64539.38;6290081;28;20511;-86
2024/01/15 08:47:36;;;;;;;6.20;6.00;;;;;;;-145.48;100.00;64539.38;6287350;28;20036;-86
2024/01/15 08:50:38;;;;;;;6.45;6.25;;;;;;;-145.48;100.00;64539.38;6278704;28;20037;-87
2024/01/15 08:53:40;;;;;;;5.72;5.53;;;;;;;-145.48;100.00;64539.38;6280991;28;20471;-85
2024/01/15 08:56:42;;;;;;;5.60;5.40;;;;;;;-145.48;100.00;64539.38;6284161;28;20510;-86
2024/01/15 08:59:45;;;;;;;6.28;6.03;;;;;;;-145.48;100.00;64539.38;6284193;28;20554;-85
2024/01/15 09:02:47;;;;;;;5.55;5.35;;;;;;;-145.48;100.00;64539.38;6278681;28;20534;-87
2024/01/15 09:05:49;;;;;;;5.55;5.35;;;;;;;-145.48;100.00;64539.38;6273243;28;20048;-86
2024/01/15 09:08:51;;;;;;;6.25;5.95;;;;;;;-145.48;100.00;64539.38;6287684;28;20045;-86
2024/01/15 09:11:53;;;;;;;6.25;5.75;;;;;;;-145.48;100.00;64539.38;6280072;28;20414;-84
2024/01/15 09:14:56;;;;;;;8.48;8.07;;;;;;;-145.48;100.00;64539.38;6274051;28;20445;-84
2024/01/15 09:18:01;;;;;;;6.10;5.90;;;;;;;-145.48;100.00;64539.38;6292670;28;20066;-84
2024/01/15 09:21:08;;;;;;;6.88;6.32;;;;;;;-145.48;100.00;64539.38;6284345;28;20033;-84
2024/01/15 09:24:10;;;;;;;5.47;5.28;;;;;;;-145.48;100.00;64539.38;6285125;28;20048;-84
2024/01/15 09:27:12;;;;;;;5.40;5.20;;;;;;;-145.48;100.00;64539.38;6285211;28;20049;-84
2024/01/15 09:30:15;;;;;;;6.93;6.63;;;;;;;-145.48;100.00;64539.38;6282296;28;20036;-84
2024/01/15 09:33:17;;;;;;;5.68;5.47;;;;;;;-145.48;100.00;64539.38;6280878;28;20467;-85
2024/01/15 09:36:20;;;;;;;5.70;5.50;;;;;;;-145.48;100.00;64539.38;6288190;28;20491;-85
2024/01/15 09:39:23;;;;;;;6.13;5.93;;;;;;;-145.48;100.00;64539.38;6284431;28;20056;-85
2024/01/15 09:42:25;;;;;;;6.10;5.90;;;;;;;-145.48;100.00;64539.38;6281055;28;20048;-86
2024/01/15 09:45:28;;;;;;;6.53;5.95;;;;;;;-145.48;100.00;64539.38;6288675;28;20044;-85
2024/01/15 09:48:33;;;;;;;6.32;6.00;;;;;;;-145.48;100.00;64539.38;6281221;28;20040;-84
2024/01/15 09:51:36;;;;;;;6.20;6.00;;;;;;;-145.48;100.00;64539.38;6280202;28;20052;-85
2024/01/15 09:54:40;;;;;;;5.75;5.55;;;;;;;-145.48;100.00;64539.38;6276033;28;20136;-84
2024/01/15 09:57:44;;;;;;;6.30;6.10;;;;;;;-145.48;100.00;64539.38;6285079;28;20059;-85
2024/01/15 10:00:49;;;;;;;6.70;6.40;;;;;;;-145.48;100.00;64539.38;6278178;28;20158;-84
2024/01/15 10:03:53;;;;;;;5.53;5.32;;;;;;;-145.48;100.00;64539.38;6275507;28;20067;-84
2024/01/15 10:06:57;;;;;;;6.35;6.05;;;;;;;-145.48;100.00;64539.38;6281250;28;20060;-84
2024/01/15 10:10:03;;;;;;;6.45;5.53;;;;;;;-145.48;100.00;64539.38;6272525;28;20075;-85
2024/01/15 10:13:06;;;;;;;6.95;6.65;;;;;;;-145.48;100.00;64539.38;6281215;28;20048;-85
2024/01/15 10:16:09;;;;;;;6.40;6.10;;;;;;;-145.48;100.00;64539.38;6282755;28;20494;-85
2024/01/15 10:19:11;;;;;;;6.20;6.00;;;;;;;-145.48;100.00;64539.38;6281476;28;20045;-86
2024/01/15 10:22:15;;;;;;;6.95;6.65;;;;;;;-145.48;100.00;64539.38;6277165;28;20196;-85
2024/01/15 10:25:23;;;;;;;5.75;5.55;;;;;;;-145.48;100.00;64539.38;6286680;28;20510;-85
2024/01/15 10:28:31;;;;;;;6.43;6.20;;;;;;;-145.48;100.00;64539.38;6278969;28;20089;-85
2024/01/15 10:31:33;;;;;;;5.72;5.53;;;;;;;-145.48;100.00;64539.38;6285444;28;20486;-84
2024/01/15 10:34:42;;;;;;;6.13;5.93;;;;;;;-145.48;100.00;64539.38;6278775;28;20486;-84
2024/01/15 10:37:47;;;;;;;5.90;5.70;;;;;;;-145.48;100.00;64539.38;6287115;28;20076;-84
2024/01/15 10:40:53;;;;;;;5.65;5.45;;;;;;;-145.48;100.00;64539.38;6287116;28;20459;-84
2024/01/15 10:43:56;;;;;;;6.55;6.28;;;;;;;-145.48;100.00;64539.38;6286108;28;20051;-84
2024/01/15 10:46:58;;;;;;;5.55;5.35;;;;;;;-145.48;100.00;64539.38;6283104;28;20383;-84
2024/01/15 10:50:03;;;;;;;5.57;5.38;;;;;;;-145.48;100.00;64539.38;6274722;28;20066;-84
2024/01/15 10:53:05;;;;;;;19.30;5.85;;;;;;;-145.48;100.00;64539.38;6287729;28;20037;-84
2024/01/15 10:56:09;;;;;;;5.15;4.95;;;;;;;-145.48;100.00;64539.38;6287676;28;20052;-85
2024/01/15 10:59:13;;;;;;;5.85;5.65;;;;;;;-145.48;100.00;64539.38;6285446;28;20041;-84
2024/01/15 11:02:15;;;;;;;5.80;5.60;;;;;;;-145.48;100.00;64539.38;6284052;28;20183;-84
2024/01/15 11:05:22;;;;;;;6.10;5.80;;;;;;;-145.48;100.00;64539.38;6285391;28;20044;-84
2024/01/15 11:08:25;;;;;;;5.75;5.55;;;;;;;-145.48;100.00;64539.38;6280753;28;20143;-85
2024/01/15 11:11:27;;;;;;;7.28;6.97;;;;;;;-145.48;100.00;64539.38;6281959;28;20123;-85
2024/01/15 11:14:48;;;;;;;5.43;5.22;;;;;;;-145.48;100.00;64539.38;6285798;28;20384;-85
2024/01/15 11:18:00;;;;;;;;;;;;;;;-145.48;100.00;64539.38;6278365;28;20044;-84
2024/01/15 11:21:18;;;;;;;6.45;6.13;;;;;;;-145.48;100.00;64539.38;6273760;28;20528;-87
2024/01/15 11:24:43;;;;;;;6.50;6.20;;;;;;;-145.48;100.00;64539.38;6290682;28;20033;-85
2024/01/15 11:27:51;;;;;;;5.80;5.60;;;;;;;-145.48;100.00;64539.38;6291181;28;20060;-86
2024/01/15 11:30:54;;;;;;;8.98;6.13;;;;;;;-145.48;100.00;64539.38;6281117;28;20075;-86
2024/01/15 11:33:56;;;;;;;7.15;6.75;;;;;;;-145.48;100.00;64539.38;6283544;28;20037;-85
2024/01/15 11:37:02;;;;;;;5.55;5.35;;;;;;;-145.48;100.00;64539.38;6282063;28;20435;-86
2024/01/15 11:40:04;;;;;;;5.65;5.45;;;;;;;-145.48;100.00;64539.38;6281461;28;20048;-86
2024/01/15 11:43:06;;;;;;;5.25;5.05;;;;;;;-145.48;100.00;64539.38;6281644;28;20482;-86
2024/01/15 11:46:17;;;;;;;6.90;6.28;;;;;;;-145.48;100.00;64539.38;6285921;28;20052;-87
2024/01/15 11:49:41;;;;;;;6.10;5.90;;;;;;;-145.48;100.00;64539.38;6272134;28;20044;-86
2024/01/15 11:52:58;;;;;;;6.35;6.13;;;;;;;-145.48;100.00;64539.38;6282885;28;20075;-87
2024/01/15 11:56:12;;;;;;;6.63;6.23;;;;;;;-145.48;100.00;64539.38;6272922;28;20045;-87
2024/01/15 11:59:14;;;;;;;5.95;5.75;;;;;;;-145.48;100.00;64539.38;6287257;28;20044;-87
2024/01/15 12:02:16;;;;;;;5.97;5.78;;;;;;;-145.48;100.00;64539.38;6275066;28;20044;-87
2024/01/15 12:05:20;;;;;;;6.22;6.03;;;;;;;-145.48;100.00;64539.38;6278169;28;20029;-87
2024/01/15 12:08:23;;;;;;;6.55;6.28;;;;;;;-145.48;100.00;64539.38;6286722;28;20043;-87
2024/01/15 12:11:28;;;;;;;6.82;6.47;;;;;;;-145.48;100.00;64539.38;6285058;28;20044;-87
2024/01/15 12:14:30;;;;;;;6.95;6.28;;;;;;;-145.48;100.00;64539.38;6278333;28;20482;-87
2024/01/15 12:17:32;;;;;;;6.53;6.32;;;;;;;-145.48;100.00;64539.38;6287801;28;20051;-88
2024/01/15 12:20:35;;;;;;;5.60;5.40;;;;;;;-145.48;100.00;64539.38;6288063;28;20441;-88
2024/01/15 12:23:37;;;;;;;6.03;5.55;;;;;;;-145.48;100.00;64539.38;6267654;28;20036;-88
2024/01/15 12:26:40;;;;;;;8.48;5.78;;;;;;;-145.48;100.00;64539.38;6287205;28;20079;-90
2024/01/15 12:29:43;;;;;;;5.63;5.43;;;;;;;-145.48;100.00;64539.38;6289001;28;20070;-89
2024/01/15 12:32:46;;;;;;;10.57;5.53;;;;;;;-145.48;100.00;64539.38;6289366;28;20045;-88
2024/01/15 12:35:49;;;;;;;5.25;5.05;;;;;;;-145.48;100.00;64539.38;6266217;28;20041;-88
2024/01/15 12:38:51;;;;;;;5.63;5.43;;;;;;;-145.48;100.00;64539.38;6293117;28;20244;-88
2024/01/15 12:41:54;;;;;;;6.07;5.88;;;;;;;-145.48;100.00;64539.38;6284651;28;20067;-89
2024/01/15 12:44:57;;;;;;;5.80;5.60;;;;;;;-145.48;100.00;64539.38;6282223;28;20040;-88
2024/01/15 12:48:00;;;;;;;4.97;4.88;;;;;;;-145.48;100.00;64539.38;6289758;28;20509;-88
2024/01/15 12:51:06;;;;;;;5.72;5.50;;;;;;;-145.48;100.00;64539.38;6284445;28;20037;-88
2024/01/15 12:54:07;;;;;;;6.18;5.95;;;;;;;-145.48;100.00;64539.38;6285001;28;20456;-89
2024/01/15 12:57:10;;;;;;;5.65;5.45;;;;;;;-145.48;100.00;64539.38;6283460;28;20170;-89
2024/01/15 13:00:14;;;;;;;7.30;6.78;;;;;;;-145.48;100.00;64539.38;6291035;28;20048;-88
2024/01/15 13:03:17;;;;;;;6.97;6.18;;;;;;;-145.48;100.00;64539.38;6280042;28;20063;-88
2024/01/15 13:06:20;;;;;;;5.13;4.93;;;;;;;-145.48;100.00;64539.38;6285516;28;20075;-88
2024/01/15 13:09:22;;;;;;;5.60;5.40;;;;;;;-145.48;100.00;64539.38;6293393;28;20399;-87
2024/01/15 13:12:24;;;;;;;6.20;6.00;;;;;;;-145.48;100.00;64539.38;6283034;28;20041;-88
2024/01/15 13:15:26;;;;;;;5.50;5.30;;;;;;;-145.48;100.00;64539.38;6283728;28;20082;-88
2024/01/15 13:18:28;;;;;;;6.38;6.03;;;;;;;-145.48;100.00;64539.38;6294093;28;20044;-87
2024/01/15 13:21:30;;;;;;;5.75;5.55;;;;;;;-145.48;100.00;64539.38;6287394;28;21106;-88
2024/01/15 13:24:32;;;;;;;5.85;5.50;;;;;;;-145.48;100.00;64539.38;6285061;28;20148;-87
2024/01/15 13:27:40;;;;;;;5.50;5.30;;;;;;;-145.48;100.00;64539.38;6272582;28;20037;-87
2024/01/15 13:30:43;;;;;;;5.32;5.13;;;;;;;-145.48;100.00;64539.38;6277828;28;20049;-87
2024/01/15 13:33:45;;;;;;;5.90;5.68;;;;;;;-145.48;100.00;64539.38;6280148;28;20041;-87
2024/01/15 13:36:47;;;;;;;5.50;5.30;;;;;;;-145.48;100.00;64539.38;6284792;28;20036;-88
2024/01/15 13:39:50;;;;;;;5.57;5.38;;;;;;;-145.48;100.00;64539.38;6273010;28;20033;-86
2024/01/15 13:42:52;;;;;;;6.25;6.03;;;;;;;-145.48;100.00;64539.38;6280625;28;20329;-87
2024/01/15 13:45:54;;;;;;;5.30;5.10;;;;;;;-145.48;100.00;64539.38;6291617;28;20116;-86
2024/01/15 13:48:56;;;;;;;5.88;5.68;;;;;;;-145.48;100.00;64539.38;6290213;28;20052;-87
2024/01/15 13:51:58;;;;;;;5.30;5.10;;;;;;;-145.48;100.00;64539.38;6280216;28;20036;-86